Washington, District of Columbia
Traffic Map
Current Weather Conditions
Washington, District of Columbia
Overcast
Overcast

Feels Like: 4°
Wind Chill: Ceiling: 6500
Heat Index: Visibility: 10mi
Dew Point: -5° Wind: 3mph
Humidity: 53% Direction: 80° (E)
Pressure: 30.37in Gusts: 0mph
Raw Report DataKDCA 211552Z 08003KT 10SM OVC065 04/M05 A3037 RMK AO2 SLP285 T00391050
Traffic Incident Summary
Active as of:
Severity:
Category:
InformationThere was an issue retrieving the traffic information for this location. Please try a different location or try again shortly.
Advertisements
Track Severe Weather on mobile